ADDS METAR Data INFO
IDs: Format: Raw Decoded Include TAF

Data at: 1842 UTC 16 Dec 2017

KHAF 161835Z AUTO 36022G29KT 9SM CLR 15/03 A2993 RMK AO2
KHAF 161815Z AUTO 35017G25KT 9SM 15/03 A2993 RMK AO2
KHAF 161755Z AUTO 36015G22KT 9SM CLR 15/00 A2993 RMK AO2
KHAF 161735Z AUTO 36017G24KT 9SM CLR 14/03 A2994 RMK AO2
KHAF 161715Z AUTO 36019G27KT 8SM CLR 13/04 A2994 RMK AO2
KHAF 161655Z AUTO 36019G29KT 8SM CLR 13/05 A2994 RMK AO2
KHAF 161635Z AUTO 36018G26KT 6SM HZ CLR 12/06 A2993 RMK AO2
KHAF 161615Z AUTO 36018G26KT 7SM CLR 12/05 A2993 RMK AO2
KHAF 161555Z AUTO 36018G24KT 7SM CLR 12/04 A2992 RMK AO2
KHAF 161535Z AUTO 36015G22KT 7SM CLR 11/05 A2992 RMK AO2
KHAF 161515Z AUTO 36013G22KT 6SM HZ CLR 11/06 A2993 RMK AO2
KHAF 161455Z AUTO 34013G19KT 6SM HZ CLR 11/07 A2993 RMK AO2
KHAF 161435Z AUTO 34016G25KT 7SM CLR 12/07 A2993 RMK AO2
KHAF 161415Z AUTO 35012KT 6SM HZ CLR 11/07 A2994 RMK AO2
KHAF 161355Z AUTO 35015G22KT 6SM HZ CLR 11/07 A2993 RMK AO2
KHAF 161335Z AUTO 34012G18KT 5SM HZ CLR 11/08 A2993 RMK AO2
KHAF 161315Z AUTO 34013G16KT 7SM CLR 11/07 A2993 RMK AO2
KHAF 161255Z AUTO 35011G23KT 6SM HZ CLR 12/07 A2994 RMK AO2
KHAF 161235Z AUTO 34017G26KT 5SM HZ FEW003 12/08 A2994 RMK AO2
KHAF 161215Z AUTO 35016G26KT 5SM HZ CLR 12/08 A2994 RMK AO2
KHAF 161155Z AUTO 35014G21KT 5SM HZ CLR 12/08 A2995 RMK AO2
KHAF 161135Z AUTO 35016G26KT 5SM HZ FEW020 12/08 A2996 RMK AO2
KHAF 161115Z AUTO 35014G25KT 5SM HZ BKN017 12/08 A2996 RMK AO2
KHAF 161055Z AUTO 35016G24KT 5SM HZ BKN017 12/09 A2996 RMK AO2
KHAF 161035Z AUTO 34016G23KT 5SM HZ BKN015 12/09 A2996 RMK AO2
KHAF 161015Z AUTO 34014G22KT 5SM HZ CLR 12/09 A2996 RMK AO2
KHAF 160955Z AUTO 34018G23KT 5SM BR CLR 12/09 A2996 RMK AO2
KHAF 160935Z AUTO 34016G23KT 4SM HZ CLR 12/09 A2997 RMK AO2
KHAF 160915Z AUTO 34016G27KT 5SM HZ FEW021 12/09 A2997 RMK AO2
KHAF 160855Z AUTO 34019G28KT 5SM HZ CLR 12/09 A2997 RMK AO2
KHAF 160835Z AUTO 34018G24KT 5SM BR FEW018 12/10 A2998 RMK AO2
KHAF 160815Z AUTO 34017G25KT 5SM HZ FEW018 FEW022 13/10 A2999 RMK AO2
KHAF 160755Z AUTO 34013G20KT 5SM BR SCT020 13/10 A3001 RMK AO2
KHAF 160735Z AUTO 33014G18KT 5SM BR CLR 12/10 A3001 RMK AO2
KHAF 160715Z AUTO 35008KT 5SM BR FEW003 12/10 A3001 RMK AO2
KHAF 160655Z AUTO 34008KT 4SM BR FEW003 SCT008 12/10 A3002 RMK AO2
KHAF 160635Z AUTO 34006KT 4SM BR FEW003 SCT008 11/10 A3002 RMK AO2
KHAF 160615Z AUTO 35003KT 4SM BR FEW003 FEW010 12/10 A3001 RMK AO2
KHAF 160555Z AUTO 35004KT 4SM BR BKN012 12/10 A3001 RMK AO2
KHAF 160535Z AUTO 33007KT 3SM BR BKN012 OVC110 12/10 A3002 RMK AO2
KHAF 160515Z AUTO 30006KT 4SM BR BKN012 OVC110 12/10 A3003 RMK AO2
KHAF 160455Z AUTO 01003KT 5SM BR OVC012 12/11 A3002 RMK AO2
KHAF 160435Z AUTO 36004KT 5SM BR BKN012 12/10 A3003 RMK AO2
KHAF 160415Z AUTO 32004KT 5SM BR BKN010 12/10 A3003 RMK AO2
KHAF 160355Z AUTO 33006KT 5SM BR OVC010 12/11 A3003 RMK AO2
KHAF 160335Z AUTO 34008KT 5SM BR OVC008 12/11 A3004 RMK AO2
KHAF 160315Z AUTO 33004KT 5SM BR OVC008 12/11 A3004 RMK AO2
KHAF 160255Z AUTO 33006KT 5SM BR OVC008 12/10 A3004 RMK AO2
KHAF 160235Z AUTO 35007KT 6SM BR BKN008 BKN014 12/10 A3004 RMK AO2
KHAF 160215Z AUTO 36005KT 6SM BR OVC008 12/10 A3003 RMK AO2
KHAF 160155Z AUTO 01005KT 5SM BR OVC006 12/11 A3004 RMK AO2
KHAF 160135Z AUTO 35006KT 5SM BR OVC006 12/11 A3005 RMK AO2
KHAF 160115Z AUTO 34010KT 5SM BR SCT004 12/11 A3005 RMK AO2
KHAF 160055Z AUTO 34010KT 3SM BR CLR 12/10 A3004 RMK AO2
KHAF 160035Z AUTO 33011KT 3SM HZ CLR 13/10 A3004 RMK AO2
KHAF 160015Z AUTO 33013KT 3SM HZ CLR 13/09 A3004 RMK AO2
KHAF 152355Z AUTO 33009KT 3SM HZ CLR 13/09 A3004 RMK AO2
KHAF 152335Z AUTO 33011KT 3SM HZ CLR 13/09 A3004 RMK AO2
KHAF 152315Z AUTO 33010KT 3SM HZ CLR 14/09 A3004 RMK AO2
KHAF 152255Z AUTO 33012KT 4SM HZ CLR 14/08 A3004 RMK AO2
KHAF 152235Z AUTO 32010KT 4SM HZ CLR 15/07 A3004 RMK AO2
KHAF 152215Z AUTO 33006KT 3SM HZ CLR 15/07 A3005 RMK AO2
KHAF 152155Z AUTO 31009KT 3SM HZ CLR 15/08 A3005 RMK AO2
KHAF 152135Z AUTO 31007KT 3SM HZ CLR 15/07 A3006 RMK AO2
KHAF 152115Z AUTO 30004KT 4SM HZ CLR 16/06 A3007 RMK AO2
KHAF 152055Z AUTO 30004KT 5SM HZ CLR 16/05 A3008 RMK AO2
KHAF 152035Z AUTO 28005KT 3SM HZ CLR 15/06 A3009 RMK AO2
KHAF 152015Z AUTO 28003KT 3SM HZ CLR 14/07 A3010 RMK AO2
KHAF 151955Z AUTO 28003KT 4SM HZ CLR 15/08 A3010 RMK AO2
KHAF 151935Z AUTO 29006KT 3SM HZ CLR 14/08 A3011 RMK AO2
KHAF 151915Z AUTO 31005KT 3SM HZ CLR 15/08 A3012 RMK AO2
KHAF 151855Z AUTO 00000KT 5SM HZ CLR 15/07 A3013 RMK AO2
KHAF 151835Z AUTO 32006KT 3SM HZ CLR 15/08 A3014 RMK AO2
KHAF 151815Z AUTO 00000KT 5SM HZ CLR 14/05 A3014 RMK AO2
KHAF 151755Z AUTO 17005KT 5SM HZ CLR 14/06 A3013 RMK AO2
KHAF 151735Z AUTO 17003KT 4SM HZ CLR 14/07 A3013 RMK AO2
KHAF 151715Z AUTO 00000KT 10SM CLR 12/06 A3013 RMK AO2
KHAF 151655Z AUTO 12003KT 8SM CLR 09/05 A3012 RMK AO2
KHAF 151635Z AUTO 00000KT 8SM CLR 08/04 A3013 RMK AO2
KHAF 151615Z AUTO 00000KT 6SM HZ CLR 08/03 A3013 RMK AO2
KHAF 151555Z AUTO 00000KT 9SM CLR 08/03 A3011 RMK AO2
KHAF 151535Z AUTO 00000KT 8SM CLR 07/03 A3011 RMK AO2
KHAF 151515Z AUTO 00000KT 9SM CLR 07/03 A3010 RMK AO2
KHAF 151455Z AUTO 00000KT 10SM CLR 08/03 A3010 RMK AO2
KHAF 151435Z AUTO 03003KT 10SM CLR 07/02 A3011 RMK AO2
KHAF 151415Z AUTO 31004KT 10SM CLR 06/02 A3011 RMK AO2
KHAF 151355Z AUTO 00000KT 10SM CLR 05/02 A3011 RMK AO2
KHAF 151335Z AUTO 31004KT 10SM CLR 04/01 A3011 RMK AO2
KHAF 151315Z AUTO 00000KT 10SM CLR 05/00 A3010 RMK AO2
KHAF 151255Z AUTO 00000KT 10SM CLR 04/01 A3010 RMK AO2
KHAF 151235Z AUTO 05005KT 10SM CLR 05/01 A3011 RMK AO2
KHAF 151215Z AUTO 00000KT 10SM FEW003 04/01 A3012 RMK AO2
KHAF 151155Z AUTO 04003KT 10SM SCT003 05/01 A3013 RMK AO2
KHAF 151135Z AUTO 04004KT 10SM SCT003 06/02 A3013 RMK AO2
KHAF 151115Z AUTO 00000KT 10SM FEW003 05/01 A3013 RMK AO2
KHAF 151055Z AUTO 00000KT 10SM FEW003 05/00 A3012 RMK AO2
KHAF 151035Z AUTO 00000KT 10SM FEW003 04/01 A3012 RMK AO2
KHAF 151015Z AUTO 00000KT 10SM BKN003 05/00 A3012 RMK AO2
KHAF 150955Z AUTO 00000KT 10SM SCT003 06/00 A3012 RMK AO2
KHAF 150935Z AUTO 00000KT 10SM FEW002 06/01 A3011 RMK AO2
KHAF 150915Z AUTO 00000KT 10SM SCT002 07/00 A3011 RMK AO2
KHAF 150855Z AUTO 34003KT 10SM FEW003 08/00 A3011 RMK AO2
KHAF 150835Z AUTO 32007KT 6SM HZ CLR 07/02 A3011 RMK AO2
KHAF 150815Z AUTO 33006KT 10SM CLR 06/01 A3011 RMK AO2
KHAF 150755Z AUTO 00000KT 10SM CLR 06/01 A3011 RMK AO2
KHAF 150735Z AUTO 00000KT 10SM CLR 05/00 A3011 RMK AO2
KHAF 150715Z AUTO 00000KT 10SM CLR 07/00 A3010 RMK AO2
KHAF 150655Z AUTO 00000KT 10SM CLR 05/01 A3011 RMK AO2